sensor_id;sensor_type;location;lat;lon;timestamp;pressure;altitude;pressure_sealevel;temperature;humidity
72677;BME280;60755;51.374;10.662;2023-02-28T00:00:12;98427.03;;;-1.30;69.62
72677;BME280;60755;51.374;10.662;2023-02-28T00:02:41;98419.84;;;-1.36;69.09
72677;BME280;60755;51.374;10.662;2023-02-28T00:05:10;98420.66;;;-1.35;69.74
72677;BME280;60755;51.374;10.662;2023-02-28T00:07:37;98420.66;;;-1.35;69.34
72677;BME280;60755;51.374;10.662;2023-02-28T00:10:06;98414.91;;;-1.39;69.66
72677;BME280;60755;51.374;10.662;2023-02-28T00:12:34;98421.19;;;-1.32;70.11
72677;BME280;60755;51.374;10.662;2023-02-28T00:15:05;98417.91;;;-1.44;70.63
72677;BME280;60755;51.374;10.662;2023-02-28T00:17:32;98419.00;;;-1.36;70.09
72677;BME280;60755;51.374;10.662;2023-02-28T00:19:59;98414.13;;;-1.30;69.16
72677;BME280;60755;51.374;10.662;2023-02-28T00:22:36;98417.94;;;-1.34;69.57
72677;BME280;60755;51.374;10.662;2023-02-28T00:25:04;98422.69;;;-1.29;69.47
72677;BME280;60755;51.374;10.662;2023-02-28T00:27:32;98420.09;;;-1.29;69.83
72677;BME280;60755;51.374;10.662;2023-02-28T00:29:59;98425.84;;;-1.26;69.28
72677;BME280;60755;51.374;10.662;2023-02-28T00:32:28;98418.78;;;-1.24;69.53
72677;BME280;60755;51.374;10.662;2023-02-28T00:34:55;98412.25;;;-1.28;69.71
72677;BME280;60755;51.374;10.662;2023-02-28T00:37:22;98421.63;;;-1.27;69.07
72677;BME280;60755;51.374;10.662;2023-02-28T00:39:49;98417.66;;;-1.31;69.52
72677;BME280;60755;51.374;10.662;2023-02-28T00:42:16;98415.75;;;-1.29;70.21
72677;BME280;60755;51.374;10.662;2023-02-28T00:44:43;98422.56;;;-1.28;70.13
72677;BME280;60755;51.374;10.662;2023-02-28T00:47:11;98425.00;;;-1.36;69.39
72677;BME280;60755;51.374;10.662;2023-02-28T00:49:39;98424.22;;;-1.27;69.57
72677;BME280;60755;51.374;10.662;2023-02-28T00:52:09;98424.44;;;-1.30;69.02
72677;BME280;60755;51.374;10.662;2023-02-28T00:54:36;98426.06;;;-1.29;69.64
72677;BME280;60755;51.374;10.662;2023-02-28T00:57:03;98426.50;;;-1.24;68.37
72677;BME280;60755;51.374;10.662;2023-02-28T00:59:31;98424.22;;;-1.27;68.74
72677;BME280;60755;51.374;10.662;2023-02-28T01:01:58;98419.72;;;-1.25;68.75
72677;BME280;60755;51.374;10.662;2023-02-28T01:04:25;98427.97;;;-1.31;69.46
72677;BME280;60755;51.374;10.662;2023-02-28T01:06:53;98420.38;;;-1.32;69.37
72677;BME280;60755;51.374;10.662;2023-02-28T01:09:20;98432.91;;;-1.28;69.85
72677;BME280;60755;51.374;10.662;2023-02-28T01:11:47;98427.47;;;-1.25;68.79
72677;BME280;60755;51.374;10.662;2023-02-28T01:14:16;98429.91;;;-1.23;69.37
72677;BME280;60755;51.374;10.662;2023-02-28T01:16:45;98423.94;;;-1.24;69.63
72677;BME280;60755;51.374;10.662;2023-02-28T01:19:12;98419.28;;;-1.30;69.74
72677;BME280;60755;51.374;10.662;2023-02-28T01:21:39;98415.66;;;-1.27;69.93
72677;BME280;60755;51.374;10.662;2023-02-28T01:24:07;98418.19;;;-1.37;70.44
72677;BME280;60755;51.374;10.662;2023-02-28T01:26:35;98416.31;;;-1.35;71.11
72677;BME280;60755;51.374;10.662;2023-02-28T01:29:02;98414.69;;;-1.36;68.68
72677;BME280;60755;51.374;10.662;2023-02-28T01:31:29;98410.03;;;-1.42;69.82
72677;BME280;60755;51.374;10.662;2023-02-28T01:33:56;98413.28;;;-1.40;69.72
72677;BME280;60755;51.374;10.662;2023-02-28T01:36:29;98416.50;;;-1.48;70.13
72677;BME280;60755;51.374;10.662;2023-02-28T01:38:56;98419.22;;;-1.49;70.53
72677;BME280;60755;51.374;10.662;2023-02-28T01:41:26;98413.22;;;-1.59;70.03
72677;BME280;60755;51.374;10.662;2023-02-28T01:44:04;98408.56;;;-1.65;70.28
72677;BME280;60755;51.374;10.662;2023-02-28T01:46:32;98407.63;;;-1.64;69.42
72677;BME280;60755;51.374;10.662;2023-02-28T01:49:05;98410.03;;;-1.73;70.26
72677;BME280;60755;51.374;10.662;2023-02-28T01:51:38;98404.38;;;-1.66;69.76
72677;BME280;60755;51.374;10.662;2023-02-28T01:54:14;98401.53;;;-1.63;69.17
72677;BME280;60755;51.374;10.662;2023-02-28T01:56:47;98400.97;;;-1.67;70.26
72677;BME280;60755;51.374;10.662;2023-02-28T01:59:22;98391.03;;;-1.72;71.13
72677;BME280;60755;51.374;10.662;2023-02-28T02:01:51;98403.94;;;-1.72;71.25
72677;BME280;60755;51.374;10.662;2023-02-28T02:04:19;98399.34;;;-1.68;70.58
72677;BME280;60755;51.374;10.662;2023-02-28T02:06:48;98395.56;;;-1.64;70.26
72677;BME280;60755;51.374;10.662;2023-02-28T02:09:15;98394.75;;;-1.64;71.09
72677;BME280;60755;51.374;10.662;2023-02-28T02:11:44;98400.41;;;-1.71;70.38
72677;BME280;60755;51.374;10.662;2023-02-28T02:14:25;98397.47;;;-1.66;70.59
72677;BME280;60755;51.374;10.662;2023-02-28T02:17:10;98398.09;;;-1.74;71.16
72677;BME280;60755;51.374;10.662;2023-02-28T02:20:01;98389.59;;;-1.64;71.09
72677;BME280;60755;51.374;10.662;2023-02-28T02:22:50;98392.66;;;-1.71;71.57
72677;BME280;60755;51.374;10.662;2023-02-28T02:25:27;98394.72;;;-1.74;71.78
72677;BME280;60755;51.374;10.662;2023-02-28T02:31:18;98384.00;;;-1.70;71.32
72677;BME280;60755;51.374;10.662;2023-02-28T02:34:17;98391.19;;;-1.73;71.99
72677;BME280;60755;51.374;10.662;2023-02-28T02:36:53;98389.03;;;-1.68;71.23
72677;BME280;60755;51.374;10.662;2023-02-28T02:39:29;98388.75;;;-1.75;72.23
72677;BME280;60755;51.374;10.662;2023-02-28T02:42:01;98395.38;;;-1.72;71.84
72677;BME280;60755;51.374;10.662;2023-02-28T02:44:38;98392.44;;;-1.67;71.52
72677;BME280;60755;51.374;10.662;2023-02-28T02:47:10;98390.69;;;-1.67;71.50
72677;BME280;60755;51.374;10.662;2023-02-28T02:49:43;98393.63;;;-1.72;71.58
72677;BME280;60755;51.374;10.662;2023-02-28T02:52:15;98390.38;;;-1.74;72.29
72677;BME280;60755;51.374;10.662;2023-02-28T02:54:45;98391.72;;;-1.70;72.26
72677;BME280;60755;51.374;10.662;2023-02-28T02:57:20;98393.25;;;-1.67;72.36
72677;BME280;60755;51.374;10.662;2023-02-28T02:59:51;98386.88;;;-1.63;71.23
72677;BME280;60755;51.374;10.662;2023-02-28T03:02:20;98394.88;;;-1.66;71.91
72677;BME280;60755;51.374;10.662;2023-02-28T03:04:52;98390.41;;;-1.64;71.52
72677;BME280;60755;51.374;10.662;2023-02-28T03:07:21;98390.03;;;-1.59;72.05
72677;BME280;60755;51.374;10.662;2023-02-28T03:09:51;98378.59;;;-1.66;72.19
72677;BME280;60755;51.374;10.662;2023-02-28T03:12:20;98390.41;;;-1.64;72.76
72677;BME280;60755;51.374;10.662;2023-02-28T03:14:56;98390.13;;;-1.61;72.91
72677;BME280;60755;51.374;10.662;2023-02-28T03:17:46;98393.72;;;-1.52;72.30
72677;BME280;60755;51.374;10.662;2023-02-28T03:20:27;98386.00;;;-1.52;71.94
72677;BME280;60755;51.374;10.662;2023-02-28T03:23:04;98390.97;;;-1.60;73.09
72677;BME280;60755;51.374;10.662;2023-02-28T03:25:45;98385.84;;;-1.51;72.67
72677;BME280;60755;51.374;10.662;2023-02-28T03:28:19;98392.97;;;-1.64;73.17
72677;BME280;60755;51.374;10.662;2023-02-28T03:30:50;98387.69;;;-1.62;73.17
72677;BME280;60755;51.374;10.662;2023-02-28T03:33:21;98385.81;;;-1.60;72.53
72677;BME280;60755;51.374;10.662;2023-02-28T03:35:54;98386.88;;;-1.63;72.98
72677;BME280;60755;51.374;10.662;2023-02-28T03:38:25;98387.16;;;-1.66;72.85
72677;BME280;60755;51.374;10.662;2023-02-28T03:40:58;98389.09;;;-1.58;73.56
72677;BME280;60755;51.374;10.662;2023-02-28T03:43:31;98389.59;;;-1.64;72.92
72677;BME280;60755;51.374;10.662;2023-02-28T03:46:02;98380.22;;;-1.65;72.79
72677;BME280;60755;51.374;10.662;2023-02-28T03:48:38;98387.81;;;-1.64;72.97
72677;BME280;60755;51.374;10.662;2023-02-28T03:51:09;98380.75;;;-1.72;73.60
72677;BME280;60755;51.374;10.662;2023-02-28T03:53:39;98390.13;;;-1.61;73.17
72677;BME280;60755;51.374;10.662;2023-02-28T03:56:12;98396.38;;;-1.63;73.10
72677;BME280;60755;51.374;10.662;2023-02-28T03:58:46;98383.91;;;-1.68;73.27
72677;BME280;60755;51.374;10.662;2023-02-28T04:01:18;98389.09;;;-1.58;72.46
72677;BME280;60755;51.374;10.662;2023-02-28T04:03:47;98395.41;;;-1.62;72.29
72677;BME280;60755;51.374;10.662;2023-02-28T04:06:19;98396.38;;;-1.63;72.99
72677;BME280;60755;51.374;10.662;2023-02-28T04:08:47;98396.63;;;-1.66;72.81
72677;BME280;60755;51.374;10.662;2023-02-28T04:11:21;98396.94;;;-1.60;72.80
72677;BME280;60755;51.374;10.662;2023-02-28T04:13:48;98393.78;;;-1.63;72.96
72677;BME280;60755;51.374;10.662;2023-02-28T04:16:15;98395.81;;;-1.67;72.93
72677;BME280;60755;51.374;10.662;2023-02-28T04:18:55;98395.19;;;-1.59;73.31
72677;BME280;60755;51.374;10.662;2023-02-28T04:21:28;98390.41;;;-1.64;73.86
72677;BME280;60755;51.374;10.662;2023-02-28T04:23:56;98393.94;;;-1.65;73.86
72677;BME280;60755;51.374;10.662;2023-02-28T04:26:28;98389.97;;;-1.69;73.51
72677;BME280;60755;51.374;10.662;2023-02-28T04:28:56;98397.16;;;-1.73;74.15
72677;BME280;60755;51.374;10.662;2023-02-28T04:31:23;98394.72;;;-1.74;74.51
72677;BME280;60755;51.374;10.662;2023-02-28T04:33:50;98408.81;;;-1.69;74.03
72677;BME280;60755;51.374;10.662;2023-02-28T04:36:17;98399.44;;;-1.70;74.21
72677;BME280;60755;51.374;10.662;2023-02-28T04:38:46;98404.19;;;-1.75;74.24
72677;BME280;60755;51.374;10.662;2023-02-28T04:41:13;98410.53;;;-1.79;74.45
72677;BME280;60755;51.374;10.662;2023-02-28T04:43:40;98403.84;;;-1.91;74.90
72677;BME280;60755;51.374;10.662;2023-02-28T04:46:08;98405.97;;;-1.96;74.27
72677;BME280;60755;51.374;10.662;2023-02-28T04:48:38;98408.41;;;-1.94;75.37
72677;BME280;60755;51.374;10.662;2023-02-28T04:51:07;98403.22;;;-2.04;75.08
72677;BME280;60755;51.374;10.662;2023-02-28T04:53:35;98402.94;;;-2.01;74.99
72677;BME280;60755;51.374;10.662;2023-02-28T04:56:05;98406.84;;;-2.07;75.60
72677;BME280;60755;51.374;10.662;2023-02-28T04:58:33;98404.28;;;-2.07;75.06
72677;BME280;60755;51.374;10.662;2023-02-28T05:01:05;98401.56;;;-2.05;75.82
72677;BME280;60755;51.374;10.662;2023-02-28T05:03:38;98405.34;;;-2.09;75.42
72677;BME280;60755;51.374;10.662;2023-02-28T05:06:06;98405.59;;;-2.12;76.41
72677;BME280;60755;51.374;10.662;2023-02-28T05:08:33;98401.19;;;-2.21;75.88
72677;BME280;60755;51.374;10.662;2023-02-28T05:11:00;98404.47;;;-2.19;75.78
72677;BME280;60755;51.374;10.662;2023-02-28T05:13:28;98409.13;;;-2.13;75.47
72677;BME280;60755;51.374;10.662;2023-02-28T05:15:56;98410.06;;;-2.14;73.23
72677;BME280;60755;51.374;10.662;2023-02-28T05:18:23;98411.69;;;-2.13;73.32
72677;BME280;60755;51.374;10.662;2023-02-28T05:20:49;98411.00;;;-2.15;74.85
72677;BME280;60755;51.374;10.662;2023-02-28T05:23:17;98417.09;;;-2.16;73.84
72677;BME280;60755;51.374;10.662;2023-02-28T05:25:46;98422.28;;;-2.28;75.00
72677;BME280;60755;51.374;10.662;2023-02-28T05:28:13;98417.72;;;-2.24;74.49
72677;BME280;60755;51.374;10.662;2023-02-28T05:30:41;98412.56;;;-2.24;75.08
72677;BME280;60755;51.374;10.662;2023-02-28T05:33:10;98417.59;;;-2.22;74.62
72677;BME280;60755;51.374;10.662;2023-02-28T05:35:38;98420.09;;;-2.11;74.21
72677;BME280;60755;51.374;10.662;2023-02-28T05:38:05;98422.44;;;-2.08;72.99
72677;BME280;60755;51.374;10.662;2023-02-28T05:40:32;98429.44;;;-2.10;74.08
72677;BME280;60755;51.374;10.662;2023-02-28T05:43:00;98429.22;;;-2.07;74.09
72677;BME280;60755;51.374;10.662;2023-02-28T05:45:27;98428.13;;;-2.05;71.75
72677;BME280;60755;51.374;10.662;2023-02-28T05:47:55;98426.56;;;-2.17;73.50
72677;BME280;60755;51.374;10.662;2023-02-28T05:50:22;98433.72;;;-2.20;73.20
72677;BME280;60755;51.374;10.662;2023-02-28T05:52:49;98433.06;;;-2.34;74.75
72677;BME280;60755;51.374;10.662;2023-02-28T05:55:16;98434.00;;;-2.35;72.02
72677;BME280;60755;51.374;10.662;2023-02-28T05:57:44;98431.91;;;-2.30;73.11
72677;BME280;60755;51.374;10.662;2023-02-28T06:00:12;98437.19;;;-2.31;72.27
72677;BME280;60755;51.374;10.662;2023-02-28T06:02:40;98432.59;;;-2.28;73.59
72677;BME280;60755;51.374;10.662;2023-02-28T06:05:13;98435.84;;;-2.26;72.83
72677;BME280;60755;51.374;10.662;2023-02-28T06:07:40;98438.94;;;-2.32;74.41
72677;BME280;60755;51.374;10.662;2023-02-28T06:10:08;98441.31;;;-2.40;73.27
72677;BME280;60755;51.374;10.662;2023-02-28T06:12:35;98440.69;;;-2.32;73.87
72677;BME280;60755;51.374;10.662;2023-02-28T06:15:02;98450.13;;;-2.33;73.44
72677;BME280;60755;51.374;10.662;2023-02-28T06:17:29;98445.25;;;-2.36;74.45
72677;BME280;60755;51.374;10.662;2023-02-28T06:19:56;98446.00;;;-2.45;73.94
72677;BME280;60755;51.374;10.662;2023-02-28T06:22:24;98445.44;;;-2.28;74.18
72677;BME280;60755;51.374;10.662;2023-02-28T06:24:51;98448.78;;;-2.37;74.94
72677;BME280;60755;51.374;10.662;2023-02-28T06:27:20;98446.25;;;-2.48;75.79
72677;BME280;60755;51.374;10.662;2023-02-28T06:29:47;98445.72;;;-2.42;75.40
72677;BME280;60755;51.374;10.662;2023-02-28T06:32:15;98453.91;;;-2.37;75.61
72677;BME280;60755;51.374;10.662;2023-02-28T06:34:41;98450.25;;;-2.23;75.17
72677;BME280;60755;51.374;10.662;2023-02-28T06:37:08;98447.22;;;-2.28;75.14
72677;BME280;60755;51.374;10.662;2023-02-28T06:39:37;98454.78;;;-2.15;74.84
72677;BME280;60755;51.374;10.662;2023-02-28T06:42:04;98457.34;;;-2.15;74.92
72677;BME280;60755;51.374;10.662;2023-02-28T06:44:31;98463.56;;;-1.97;73.50
72677;BME280;60755;51.374;10.662;2023-02-28T06:47:01;98463.25;;;-1.83;71.92
72677;BME280;60755;51.374;10.662;2023-02-28T06:49:29;98466.84;;;-1.74;71.79
72677;BME280;60755;51.374;10.662;2023-02-28T06:51:56;98462.97;;;-0.98;69.83
72677;BME280;60755;51.374;10.662;2023-02-28T06:54:23;98465.44;;;0.86;63.70
72677;BME280;60755;51.374;10.662;2023-02-28T06:56:52;98471.91;;;1.90;59.68
72677;BME280;60755;51.374;10.662;2023-02-28T06:59:20;98477.78;;;2.62;58.62
72677;BME280;60755;51.374;10.662;2023-02-28T07:01:47;98477.88;;;3.21;56.66
72677;BME280;60755;51.374;10.662;2023-02-28T07:04:14;98477.34;;;3.59;54.54
72677;BME280;60755;51.374;10.662;2023-02-28T07:06:40;98480.47;;;3.71;52.64
72677;BME280;60755;51.374;10.662;2023-02-28T07:09:07;98476.13;;;4.04;51.79
72677;BME280;60755;51.374;10.662;2023-02-28T07:11:34;98485.47;;;3.06;54.01
72677;BME280;60755;51.374;10.662;2023-02-28T07:14:03;98477.78;;;1.02;58.71
72677;BME280;60755;51.374;10.662;2023-02-28T07:16:30;98482.22;;;0.16;62.64
72677;BME280;60755;51.374;10.662;2023-02-28T07:18:57;98485.91;;;-0.54;65.91
72677;BME280;60755;51.374;10.662;2023-02-28T07:21:24;98480.59;;;-0.63;66.75
72677;BME280;60755;51.374;10.662;2023-02-28T07:23:51;98489.00;;;-0.70;67.10
72677;BME280;60755;51.374;10.662;2023-02-28T07:26:19;98493.03;;;-0.87;66.89
72677;BME280;60755;51.374;10.662;2023-02-28T07:28:48;98491.63;;;-0.91;67.84
72677;BME280;60755;51.374;10.662;2023-02-28T07:31:17;98499.00;;;-0.87;68.02
72677;BME280;60755;51.374;10.662;2023-02-28T07:33:44;98501.13;;;-1.01;68.40
72677;BME280;60755;51.374;10.662;2023-02-28T07:36:13;98492.69;;;-1.03;69.99
72677;BME280;60755;51.374;10.662;2023-02-28T07:38:41;98505.38;;;-0.81;67.92
72677;BME280;60755;51.374;10.662;2023-02-28T07:41:09;98496.00;;;-0.82;68.59
72677;BME280;60755;51.374;10.662;2023-02-28T07:43:36;98491.66;;;-0.81;68.12
72677;BME280;60755;51.374;10.662;2023-02-28T07:46:04;98484.34;;;-0.76;67.45
72677;BME280;60755;51.374;10.662;2023-02-28T07:48:33;98492.94;;;-0.66;67.92
72677;BME280;60755;51.374;10.662;2023-02-28T07:51:01;98498.75;;;-0.74;67.76
72677;BME280;60755;51.374;10.662;2023-02-28T07:53:29;98490.63;;;-0.60;66.74
72677;BME280;60755;51.374;10.662;2023-02-28T07:55:56;98492.69;;;-0.63;67.88
72677;BME280;60755;51.374;10.662;2023-02-28T07:58:24;98496.47;;;-0.67;67.73
72677;BME280;60755;51.374;10.662;2023-02-28T08:00:52;98493.50;;;-0.63;67.73
72677;BME280;60755;51.374;10.662;2023-02-28T08:03:20;98497.69;;;-0.62;67.56
72677;BME280;60755;51.374;10.662;2023-02-28T08:05:49;98504.09;;;-0.56;67.52
72677;BME280;60755;51.374;10.662;2023-02-28T08:08:18;98502.06;;;-0.52;66.86
72677;BME280;60755;51.374;10.662;2023-02-28T08:10:45;98507.88;;;-0.70;66.04
72677;BME280;60755;51.374;10.662;2023-02-28T08:13:12;98496.59;;;-0.69;67.48
72677;BME280;60755;51.374;10.662;2023-02-28T08:15:40;98495.28;;;-0.53;66.27
72677;BME280;60755;51.374;10.662;2023-02-28T08:18:07;98498.38;;;-0.60;66.58
72677;BME280;60755;51.374;10.662;2023-02-28T08:20:34;98491.06;;;-0.64;65.72
72677;BME280;60755;51.374;10.662;2023-02-28T08:23:02;98495.28;;;-0.53;65.92
72677;BME280;60755;51.374;10.662;2023-02-28T08:25:29;98496.09;;;-0.53;63.82
72677;BME280;60755;51.374;10.662;2023-02-28T08:27:56;98499.91;;;-0.38;63.11
72677;BME280;60755;51.374;10.662;2023-02-28T08:30:23;98497.47;;;-0.39;64.29
72677;BME280;60755;51.374;10.662;2023-02-28T08:32:50;98487.53;;;-0.34;62.30
72677;BME280;60755;51.374;10.662;2023-02-28T08:35:17;98495.19;;;-0.23;63.90
72677;BME280;60755;51.374;10.662;2023-02-28T08:37:44;98486.63;;;-0.14;62.00
72677;BME280;60755;51.374;10.662;2023-02-28T08:40:12;98503.06;;;-0.15;62.10
72677;BME280;60755;51.374;10.662;2023-02-28T08:42:43;98499.66;;;-0.06;61.59
72677;BME280;60755;51.374;10.662;2023-02-28T08:45:11;98491.63;;;-0.12;59.25
72677;BME280;60755;51.374;10.662;2023-02-28T08:47:38;98500.50;;;-0.15;59.52
72677;BME280;60755;51.374;10.662;2023-02-28T08:50:05;98494.75;;;-0.09;60.96
72677;BME280;60755;51.374;10.662;2023-02-28T08:52:33;98493.41;;;0.07;60.16
72677;BME280;60755;51.374;10.662;2023-02-28T08:54:59;98490.56;;;0.10;60.37
72677;BME280;60755;51.374;10.662;2023-02-28T08:57:28;98491.38;;;0.10;59.96
72677;BME280;60755;51.374;10.662;2023-02-28T08:59:55;98496.53;;;0.10;60.06
72677;BME280;60755;51.374;10.662;2023-02-28T09:02:22;98502.94;;;-0.04;57.39
72677;BME280;60755;51.374;10.662;2023-02-28T09:04:49;98506.06;;;0.00;59.95
72677;BME280;60755;51.374;10.662;2023-02-28T09:07:16;98495.75;;;0.00;59.52
72677;BME280;60755;51.374;10.662;2023-02-28T09:09:43;98485.94;;;0.04;57.89
72677;BME280;60755;51.374;10.662;2023-02-28T09:12:20;98489.59;;;-0.09;56.84
72677;BME280;60755;51.374;10.662;2023-02-28T09:14:48;98493.94;;;-0.09;58.57
72677;BME280;60755;51.374;10.662;2023-02-28T09:17:15;98494.06;;;-0.01;59.95
72677;BME280;60755;51.374;10.662;2023-02-28T09:19:43;98492.19;;;0.11;58.41
72677;BME280;60755;51.374;10.662;2023-02-28T09:22:10;98511.06;;;0.21;58.52
72677;BME280;60755;51.374;10.662;2023-02-28T09:24:37;98507.16;;;0.17;58.08
72677;BME280;60755;51.374;10.662;2023-02-28T09:27:05;98510.28;;;0.11;56.58
72677;BME280;60755;51.374;10.662;2023-02-28T09:29:33;98504.44;;;0.09;56.99
72677;BME280;60755;51.374;10.662;2023-02-28T09:32:02;98508.06;;;0.16;56.33
72677;BME280;60755;51.374;10.662;2023-02-28T09:34:31;98512.31;;;0.17;57.35
72677;BME280;60755;51.374;10.662;2023-02-28T09:36:58;98514.91;;;0.17;57.15
72677;BME280;60755;51.374;10.662;2023-02-28T09:39:25;98524.41;;;0.26;58.48
72677;BME280;60755;51.374;10.662;2023-02-28T09:41:55;98514.31;;;0.42;57.85
72677;BME280;60755;51.374;10.662;2023-02-28T09:44:26;98515.13;;;0.43;58.81
72677;BME280;60755;51.374;10.662;2023-02-28T09:46:58;98503.94;;;0.62;58.32
72677;BME280;60755;51.374;10.662;2023-02-28T09:49:34;98504.41;;;0.84;59.07
72677;BME280;60755;51.374;10.662;2023-02-28T09:52:05;98502.22;;;0.80;56.96
72677;BME280;60755;51.374;10.662;2023-02-28T09:54:35;98505.25;;;0.75;57.79
72677;BME280;60755;51.374;10.662;2023-02-28T09:57:06;98507.06;;;1.02;56.59
72677;BME280;60755;51.374;10.662;2023-02-28T09:59:48;98501.94;;;0.93;54.50
72677;BME280;60755;51.374;10.662;2023-02-28T10:02:39;98503.69;;;0.92;56.26
72677;BME280;60755;51.374;10.662;2023-02-28T10:05:11;98508.88;;;1.20;54.73
72677;BME280;60755;51.374;10.662;2023-02-28T10:07:53;98501.06;;;1.02;56.35
72677;BME280;60755;51.374;10.662;2023-02-28T10:10:28;98509.69;;;1.20;56.53
72677;BME280;60755;51.374;10.662;2023-02-28T10:12:59;98503.09;;;1.08;56.33
72677;BME280;60755;51.374;10.662;2023-02-28T10:15:30;98507.00;;;1.22;55.87
72677;BME280;60755;51.374;10.662;2023-02-28T10:18:01;98512.31;;;1.48;56.04
72677;BME280;60755;51.374;10.662;2023-02-28T10:20:33;98511.19;;;1.50;55.34
72677;BME280;60755;51.374;10.662;2023-02-28T10:23:09;98510.81;;;1.45;57.13
72677;BME280;60755;51.374;10.662;2023-02-28T10:25:39;98532.78;;;1.04;54.36
72677;BME280;60755;51.374;10.662;2023-02-28T10:28:10;98506.84;;;0.86;54.55
72677;BME280;60755;51.374;10.662;2023-02-28T10:30:40;98526.13;;;1.01;55.76
72677;BME280;60755;51.374;10.662;2023-02-28T10:33:17;98505.97;;;1.05;56.39
72677;BME280;60755;51.374;10.662;2023-02-28T10:35:47;98513.03;;;1.13;55.75
72677;BME280;60755;51.374;10.662;2023-02-28T10:38:17;98502.84;;;1.01;55.08
72677;BME280;60755;51.374;10.662;2023-02-28T10:40:45;98505.94;;;1.15;55.77
72677;BME280;60755;51.374;10.662;2023-02-28T10:43:20;98502.31;;;0.98;55.88
72677;BME280;60755;51.374;10.662;2023-02-28T10:45:58;98508.66;;;0.76;56.17
72677;BME280;60755;51.374;10.662;2023-02-28T10:48:32;98516.16;;;0.69;57.24
72677;BME280;60755;51.374;10.662;2023-02-28T10:51:02;98497.13;;;0.61;57.67
72677;BME280;60755;51.374;10.662;2023-02-28T10:53:36;98493.63;;;0.52;58.46
72677;BME280;60755;51.374;10.662;2023-02-28T10:56:06;98489.59;;;0.77;59.26
72677;BME280;60755;51.374;10.662;2023-02-28T10:58:47;98482.13;;;0.74;56.72
72677;BME280;60755;51.374;10.662;2023-02-28T11:01:16;98508.97;;;0.63;56.88
72677;BME280;60755;51.374;10.662;2023-02-28T11:03:43;98490.88;;;0.53;57.54
72677;BME280;60755;51.374;10.662;2023-02-28T11:06:16;98485.56;;;0.65;58.11
72677;BME280;60755;51.374;10.662;2023-02-28T11:08:51;98493.31;;;0.55;57.49
72677;BME280;60755;51.374;10.662;2023-02-28T11:11:19;98478.25;;;0.50;58.58
72677;BME280;60755;51.374;10.662;2023-02-28T11:13:47;98490.03;;;0.63;56.92
72677;BME280;60755;51.374;10.662;2023-02-28T11:16:17;98480.75;;;0.70;57.11
72677;BME280;60755;51.374;10.662;2023-02-28T11:18:48;98488.84;;;0.57;57.64
72677;BME280;60755;51.374;10.662;2023-02-28T11:21:20;98486.13;;;0.59;60.01
72677;BME280;60755;51.374;10.662;2023-02-28T11:23:51;98475.78;;;0.59;57.67
72677;BME280;60755;51.374;10.662;2023-02-28T11:26:38;98469.94;;;0.57;58.41
72677;BME280;60755;51.374;10.662;2023-02-28T11:29:11;98461.59;;;0.72;58.58
72677;BME280;60755;51.374;10.662;2023-02-28T11:31:39;98469.88;;;1.03;61.07
72677;BME280;60755;51.374;10.662;2023-02-28T11:34:24;98477.06;;;1.09;58.85
72677;BME280;60755;51.374;10.662;2023-02-28T11:36:55;98477.16;;;0.90;58.01
72677;BME280;60755;51.374;10.662;2023-02-28T11:39:24;98484.22;;;0.88;59.08
72677;BME280;60755;51.374;10.662;2023-02-28T11:42:07;98479.94;;;0.69;58.95
72677;BME280;60755;51.374;10.662;2023-02-28T11:44:56;98475.69;;;0.78;58.78
72677;BME280;60755;51.374;10.662;2023-02-28T11:47:32;98476.56;;;0.69;58.04
72677;BME280;60755;51.374;10.662;2023-02-28T11:50:16;98470.84;;;0.65;60.02
72677;BME280;60755;51.374;10.662;2023-02-28T11:52:51;98472.28;;;0.77;59.28
72677;BME280;60755;51.374;10.662;2023-02-28T11:55:21;98461.81;;;0.79;60.19
72677;BME280;60755;51.374;10.662;2023-02-28T11:57:59;98465.03;;;0.91;61.17
72677;BME280;60755;51.374;10.662;2023-02-28T12:00:52;98471.75;;;0.83;58.05
72677;BME280;60755;51.374;10.662;2023-02-28T12:03:28;98473.41;;;0.75;59.03
72677;BME280;60755;51.374;10.662;2023-02-28T12:06:04;98463.50;;;0.98;59.96
72677;BME280;60755;51.374;10.662;2023-02-28T12:08:47;98458.84;;;1.01;61.71
72677;BME280;60755;51.374;10.662;2023-02-28T12:11:28;98462.16;;;0.94;60.19
72677;BME280;60755;51.374;10.662;2023-02-28T12:14:06;98451.59;;;0.77;59.88
72677;BME280;60755;51.374;10.662;2023-02-28T12:16:50;98457.44;;;0.89;59.93
72677;BME280;60755;51.374;10.662;2023-02-28T12:19:26;98455.22;;;1.22;61.23
72677;BME280;60755;51.374;10.662;2023-02-28T12:22:25;98444.56;;;1.25;59.66
72677;BME280;60755;51.374;10.662;2023-02-28T12:28:00;98454.63;;;1.00;59.65
72677;BME280;60755;51.374;10.662;2023-02-28T12:30:29;98447.81;;;1.27;60.30
72677;BME280;60755;51.374;10.662;2023-02-28T12:33:02;98437.03;;;1.31;58.88
72677;BME280;60755;51.374;10.662;2023-02-28T12:35:33;98441.88;;;1.17;58.54
72677;BME280;60755;51.374;10.662;2023-02-28T12:38:04;98436.78;;;1.25;59.36
72677;BME280;60755;51.374;10.662;2023-02-28T12:40:42;98438.63;;;1.15;59.24
72677;BME280;60755;51.374;10.662;2023-02-28T12:43:13;98434.34;;;1.23;59.09
72677;BME280;60755;51.374;10.662;2023-02-28T12:45:44;98432.56;;;1.24;58.03
72677;BME280;60755;51.374;10.662;2023-02-28T12:48:18;98436.31;;;1.39;60.01
72677;BME280;60755;51.374;10.662;2023-02-28T12:50:47;98439.56;;;1.41;57.33
72677;BME280;60755;51.374;10.662;2023-02-28T12:53:21;98435.25;;;1.32;58.92
72677;BME280;60755;51.374;10.662;2023-02-28T12:55:56;98433.91;;;1.28;57.73
72677;BME280;60755;51.374;10.662;2023-02-28T12:58:32;98432.81;;;1.30;57.96
72677;BME280;60755;51.374;10.662;2023-02-28T13:04:30;98442.28;;;1.22;59.02
72677;BME280;60755;51.374;10.662;2023-02-28T13:07:33;98429.09;;;1.33;58.67
72677;BME280;60755;51.374;10.662;2023-02-28T13:10:05;98437.19;;;1.30;57.45
72677;BME280;60755;51.374;10.662;2023-02-28T13:12:33;98418.16;;;1.39;59.88
72677;BME280;60755;51.374;10.662;2023-02-28T13:15:07;98421.41;;;1.41;58.56
72677;BME280;60755;51.374;10.662;2023-02-28T13:17:39;98423.78;;;1.52;59.99
72677;BME280;60755;51.374;10.662;2023-02-28T13:20:15;98423.66;;;1.54;59.98